Time;durP1;ratioP1;P1;durP2;ratioP2;P2;SDS_P1;SDS_P2;PMS_P1;PMS_P2;Temp;Humidity;BMP_temperature;BMP_pressure;BME280_temperature;BME280_humidity;BME280_pressure;Samples;Min_cycle;Max_cycle;Signal;HPM_P1;HPM_P2
2022/01/01 00:02:23;;;;;;;66.63;30.90;;;;;;;-3.61;100.00;98158.81;5032789;28;20448;-67
2022/01/01 00:04:49;;;;;;;69.03;30.15;;;;;;;-3.66;100.00;98141.50;5031694;28;20057;-69
2022/01/01 00:07:16;;;;;;;68.20;28.13;;;;;;;-3.59;100.00;98149.00;5034117;28;20076;-68
2022/01/01 00:09:45;;;;;;;71.32;30.73;;;;;;;-3.84;100.00;98108.34;5032435;28;20049;-69
2022/01/01 00:12:12;;;;;;;64.03;27.02;;;;;;;-3.64;100.00;98134.31;5032362;28;20048;-68
2022/01/01 00:14:38;;;;;;;62.22;23.73;;;;;;;-3.53;100.00;98151.25;5031973;28;20045;-69
2022/01/01 00:17:05;;;;;;;52.78;21.92;;;;;;;-3.80;100.00;98104.56;5016085;28;20178;-68
2022/01/01 00:19:33;;;;;;;69.03;27.20;;;;;;;-3.56;100.00;98133.78;5032881;28;20049;-68
2022/01/01 00:22:00;;;;;;;56.70;23.55;;;;;;;-3.52;100.00;98139.72;5016459;28;20199;-68
2022/01/01 00:24:26;;;;;;;61.65;26.00;;;;;;;-3.50;100.00;98153.69;4998617;28;20199;-69
2022/01/01 00:26:52;;;;;;;55.67;23.48;;;;;;;-3.47;100.00;98148.22;5032518;28;20089;-68
2022/01/01 00:29:18;;;;;;;57.28;23.80;;;;;;;-3.47;100.00;98149.06;5015950;28;20049;-67
2022/01/01 00:31:44;;;;;;;64.60;27.30;;;;;;;-3.48;100.00;98141.22;5031555;28;20454;-67
2022/01/01 00:34:10;;;;;;;58.05;23.73;;;;;;;-3.45;100.00;98148.94;5031957;28;20144;-68
2022/01/01 00:36:38;;;;;;;64.55;25.75;;;;;;;-3.45;100.00;98141.00;4997955;28;20037;-68
2022/01/01 00:39:05;;;;;;;63.45;26.80;;;;;;;-3.41;100.00;98142.50;5033101;28;20063;-69
2022/01/01 00:41:31;;;;;;;57.72;23.15;;;;;;;-3.42;100.00;98124.97;5015541;28;20186;-68
2022/01/01 00:43:56;;;;;;;54.17;20.35;;;;;;;-3.36;100.00;98129.84;5032695;28;20049;-67
2022/01/01 00:46:22;;;;;;;55.88;23.25;;;;;;;-3.37;100.00;98117.56;5032508;28;20053;-71
2022/01/01 00:48:53;;;;;;;51.72;21.23;;;;;;;-3.36;100.00;98113.13;5032054;28;20071;-67
2022/01/01 00:51:22;;;;;;;49.47;21.08;;;;;;;-3.47;100.00;98090.94;5015776;28;20137;-68
2022/01/01 00:53:49;;;;;;;60.45;24.50;;;;;;;-3.29;100.00;98119.69;4998389;28;20037;-66
2022/01/01 00:56:15;;;;;;;60.15;23.85;;;;;;;-3.31;100.00;98117.16;5031564;28;20385;-68
2022/01/01 00:58:41;;;;;;;57.50;21.08;;;;;;;-3.27;100.00;98118.66;5030859;28;20128;-67
2022/01/01 01:01:07;;;;;;;51.55;20.80;;;;;;;-3.31;100.00;98111.88;5032196;28;20072;-67
2022/01/01 01:03:33;;;;;;;55.97;24.92;;;;;;;-3.27;100.00;98123.09;5031382;28;20100;-67
2022/01/01 01:05:59;;;;;;;54.60;22.35;;;;;;;-3.42;100.00;98093.28;5031461;28;20491;-67
2022/01/01 01:08:26;;;;;;;53.72;20.98;;;;;;;-3.24;100.00;98113.16;5013523;28;20095;-69
2022/01/01 01:10:52;;;;;;;55.33;20.90;;;;;;;-3.33;100.00;98087.34;5030332;28;20041;-67
2022/01/01 01:13:20;;;;;;;47.10;19.20;;;;;;;-3.30;100.00;98088.94;5014464;28;20037;-68
2022/01/01 01:15:46;;;;;;;48.33;19.77;;;;;;;-3.15;100.00;98107.25;5031771;28;20072;-67
2022/01/01 01:18:12;;;;;;;37.80;16.05;;;;;;;-3.09;100.00;98105.16;4999576;28;20041;-66
2022/01/01 01:20:39;;;;;;;41.95;16.55;;;;;;;-3.13;100.00;98098.41;5031538;28;20045;-67
2022/01/01 01:23:04;;;;;;;40.75;17.08;;;;;;;-3.06;100.00;98095.22;5031263;28;20059;-67
2022/01/01 01:25:38;;;;;;;41.13;15.98;;;;;;;-3.03;100.00;98083.59;5013726;28;20045;-66
2022/01/01 01:28:07;;;;;;;38.97;16.08;;;;;;;-3.02;100.00;98093.22;5013931;28;20063;-67
2022/01/01 01:30:34;;;;;;;41.83;18.33;;;;;;;-3.18;100.00;98065.19;5029693;28;20127;-68
2022/01/01 01:33:00;;;;;;;41.15;17.70;;;;;;;-3.18;100.00;98075.78;5031188;28;20048;-67
2022/01/01 01:35:26;;;;;;;40.40;17.73;;;;;;;-3.06;100.00;98089.09;5029493;28;20044;-67
2022/01/01 01:37:52;;;;;;;36.95;15.63;;;;;;;-3.07;100.00;98085.63;5013129;28;20148;-70
2022/01/01 01:40:17;;;;;;;47.92;17.00;;;;;;;-3.05;100.00;98088.13;4996767;28;20123;-66
2022/01/01 01:42:44;;;;;;;39.65;16.77;;;;;;;-3.01;100.00;98087.81;5030343;28;20087;-67
2022/01/01 01:45:15;;;;;;;38.47;14.85;;;;;;;-3.00;100.00;98084.25;5031200;28;20136;-67
2022/01/01 01:47:42;;;;;;;47.03;17.80;;;;;;;-3.00;100.00;98078.09;5031248;28;20056;-67
2022/01/01 01:50:10;;;;;;;37.35;17.13;;;;;;;-3.16;100.00;98052.72;5029607;28;20045;-66
2022/01/01 01:52:37;;;;;;;37.63;15.57;;;;;;;-2.99;100.00;98082.44;5029760;28;20046;-67
2022/01/01 01:55:06;;;;;;;37.75;15.90;;;;;;;-2.98;100.00;98081.47;5013074;28;20053;-66
2022/01/01 01:57:39;;;;;;;39.92;13.30;;;;;;;-2.94;100.00;98077.66;5030379;28;20115;-66
2022/01/01 02:00:12;;;;;;;35.60;15.02;;;;;;;-2.99;100.00;98074.50;5030129;28;20053;-67
2022/01/01 02:02:39;;;;;;;33.92;14.45;;;;;;;-2.89;100.00;98080.00;5029166;28;20091;-66
2022/01/01 02:05:05;;;;;;;39.30;15.00;;;;;;;-2.94;100.00;98082.97;5030176;28;20489;-68
2022/01/01 02:07:31;;;;;;;38.88;15.32;;;;;;;-2.88;100.00;98081.72;5029214;28;20052;-67
2022/01/01 02:09:57;;;;;;;35.42;14.85;;;;;;;-3.02;100.00;98054.41;5029978;28;20136;-66
2022/01/01 02:12:23;;;;;;;34.20;13.40;;;;;;;-2.94;100.00;98067.09;5012871;28;20123;-66
2022/01/01 02:17:15;;;;;;;28.17;12.23;;;;;;;-2.80;100.00;98080.22;5012649;28;20168;-67
2022/01/01 02:19:50;;;;;;;32.30;13.45;;;;;;;-2.81;100.00;98069.75;5029469;28;20045;-67
2022/01/01 02:22:16;;;;;;;34.00;14.15;;;;;;;-2.78;100.00;98080.97;5031159;28;20119;-67
2022/01/01 02:24:42;;;;;;;29.38;12.45;;;;;;;-2.81;100.00;98072.41;5030988;28;20520;-67
2022/01/01 02:27:08;;;;;;;32.83;13.32;;;;;;;-2.81;100.00;98078.53;5028775;28;20049;-67
2022/01/01 02:29:35;;;;;;;33.25;13.70;;;;;;;-2.81;100.00;98069.75;5014169;28;20045;-67
2022/01/01 02:32:00;;;;;;;32.47;13.23;;;;;;;-2.82;100.00;98068.88;5016827;28;20085;-65
2022/01/01 02:34:26;;;;;;;32.50;14.05;;;;;;;-2.83;100.00;98077.78;5032964;28;20048;-68
2022/01/01 02:36:52;;;;;;;35.25;12.50;;;;;;;-2.83;100.00;98075.13;5034438;28;20065;-66
2022/01/01 02:39:21;;;;;;;31.13;12.85;;;;;;;-2.81;100.00;98073.25;5032915;28;20111;-68
2022/01/01 02:41:51;;;;;;;32.30;13.25;;;;;;;-2.82;100.00;98076.81;5000092;28;20072;-68
2022/01/01 02:44:17;;;;;;;31.60;13.55;;;;;;;-2.83;100.00;98069.84;5032214;28;20361;-66
2022/01/01 02:46:43;;;;;;;30.95;12.35;;;;;;;-2.83;100.00;98074.28;5032066;28;20053;-67
2022/01/01 02:49:09;;;;;;;32.40;13.50;;;;;;;-2.82;100.00;98082.09;5016337;28;20052;-67
2022/01/01 02:51:35;;;;;;;37.65;14.82;;;;;;;-2.80;100.00;98077.56;5032101;28;20048;-66
2022/01/01 02:54:01;;;;;;;30.92;13.63;;;;;;;-2.83;100.00;98080.41;5015708;28;20049;-66
2022/01/01 02:56:26;;;;;;;30.95;12.77;;;;;;;-2.77;100.00;98080.00;5015255;28;20056;-67
2022/01/01 02:58:52;;;;;;;37.40;15.18;;;;;;;-2.80;100.00;98069.63;5031734;28;20136;-67
2022/01/01 03:01:19;;;;;;;36.70;14.68;;;;;;;-2.80;100.00;98074.91;5014984;28;20060;-67
2022/01/01 03:03:46;;;;;;;35.10;13.90;;;;;;;-2.91;100.00;98049.22;5031649;28;20496;-66
2022/01/01 03:06:19;;;;;;;36.28;13.82;;;;;;;-2.78;100.00;98062.44;5032646;28;20056;-65
2022/01/01 03:08:50;;;;;;;34.72;13.43;;;;;;;-2.81;100.00;98051.25;5033489;28;20047;-66
2022/01/01 03:11:17;;;;;;;35.55;15.10;;;;;;;-2.76;100.00;98060.53;5036067;28;20089;-67
2022/01/01 03:13:43;;;;;;;33.58;13.13;;;;;;;-2.76;100.00;98054.41;5034619;28;20521;-67
2022/01/01 03:16:09;;;;;;;37.92;14.13;;;;;;;-2.75;100.00;98056.09;5033269;28;20050;-67
2022/01/01 03:18:35;;;;;;;34.20;15.38;;;;;;;-2.75;100.00;98062.22;5032846;28;20037;-66
2022/01/01 03:21:01;;;;;;;43.30;14.93;;;;;;;-2.73;100.00;98070.91;5032910;28;20049;-67
2022/01/01 03:23:27;;;;;;;38.97;14.57;;;;;;;-2.73;100.00;98055.03;4999092;28;20041;-66
2022/01/01 03:25:52;;;;;;;34.13;13.73;;;;;;;-2.72;100.00;98061.16;5031464;28;20064;-67
2022/01/01 03:28:18;;;;;;;35.15;12.75;;;;;;;-2.87;100.00;98026.06;5031012;28;20045;-67
2022/01/01 03:30:44;;;;;;;40.70;14.95;;;;;;;-2.71;100.00;98058.41;5032444;28;20049;-65
2022/01/01 03:33:10;;;;;;;39.70;14.88;;;;;;;-2.71;100.00;98050.47;5030830;28;20037;-67
2022/01/01 03:35:36;;;;;;;35.83;16.55;;;;;;;-2.70;100.00;98048.69;5032081;28;20377;-67
2022/01/01 03:38:01;;;;;;;42.58;15.30;;;;;;;-2.78;100.00;98036.00;5032122;28;20037;-67
2022/01/01 03:40:27;;;;;;;38.55;14.73;;;;;;;-2.83;100.00;98016.97;5030624;28;20049;-66
2022/01/01 03:42:53;;;;;;;36.80;13.60;;;;;;;-2.59;100.00;98045.28;5030783;28;20430;-67
2022/01/01 03:45:19;;;;;;;36.03;13.38;;;;;;;-2.52;100.00;98041.25;5030929;28;20516;-67
2022/01/01 03:47:44;;;;;;;38.17;14.52;;;;;;;-2.55;100.00;98042.31;5030748;28;20049;-66
2022/01/01 03:50:10;;;;;;;41.40;14.68;;;;;;;-2.55;100.00;98033.53;5032473;28;20041;-69
2022/01/01 03:52:44;;;;;;;35.53;13.10;;;;;;;-2.57;100.00;98030.13;5015176;28;20176;-65
2022/01/01 03:55:14;;;;;;;32.05;13.13;;;;;;;-2.53;100.00;98044.84;5030590;28;20080;-66
2022/01/01 03:57:40;;;;;;;33.88;12.57;;;;;;;-2.50;100.00;98036.69;5030547;28;20037;-67
2022/01/01 04:00:11;;;;;;;29.48;12.82;;;;;;;-2.48;100.00;98048.00;5014708;28;20165;-67
2022/01/01 04:02:40;;;;;;;29.55;12.00;;;;;;;-2.63;100.00;98015.56;5030655;28;20054;-66
2022/01/01 04:05:06;;;;;;;34.60;13.02;;;;;;;-2.46;100.00;98043.44;5031765;28;20041;-66
2022/01/01 04:07:32;;;;;;;26.80;11.70;;;;;;;-2.44;100.00;98039.75;5030602;28;20128;-65
2022/01/01 04:09:58;;;;;;;27.90;11.88;;;;;;;-2.46;100.00;98038.16;5013597;28;20175;-67
2022/01/01 04:12:25;;;;;;;32.58;13.98;;;;;;;-2.49;100.00;98039.22;5031942;28;20073;-68
2022/01/01 04:14:51;;;;;;;30.52;11.68;;;;;;;-2.44;100.00;98038.91;5013903;28;20096;-67
2022/01/01 04:17:17;;;;;;;28.92;10.95;;;;;;;-2.39;100.00;98046.50;5030088;28;20064;-66
2022/01/01 04:19:43;;;;;;;29.70;11.45;;;;;;;-2.39;100.00;98036.75;4997526;28;20066;-66
2022/01/01 04:22:13;;;;;;;35.42;11.18;;;;;;;-2.36;100.00;98041.84;5031088;28;20097;-65
2022/01/01 04:24:40;;;;;;;28.65;11.10;;;;;;;-2.48;100.00;98026.84;5030292;28;20439;-68
2022/01/01 04:27:06;;;;;;;31.30;11.75;;;;;;;-2.39;100.00;98039.41;5029713;28;20442;-67
2022/01/01 04:29:33;;;;;;;24.85;10.75;;;;;;;-2.35;100.00;98035.56;5031441;28;20053;-66
2022/01/01 04:31:59;;;;;;;32.42;11.27;;;;;;;-2.42;100.00;98032.53;5030248;28;20084;-67
2022/01/01 04:34:26;;;;;;;28.90;11.20;;;;;;;-2.35;100.00;98042.69;5031659;28;20486;-67
2022/01/01 04:37:04;;;;;;;26.23;10.45;;;;;;;-2.52;100.00;98014.81;5014457;28;20159;-65
2022/01/01 04:39:30;;;;;;;30.45;10.15;;;;;;;-2.40;100.00;98035.06;5030219;28;20191;-67
2022/01/01 04:41:56;;;;;;;28.27;9.98;;;;;;;-2.31;100.00;98050.28;5030290;28;20041;-67
2022/01/01 04:44:22;;;;;;;31.40;11.25;;;;;;;-2.46;100.00;98015.19;5030863;28;20411;-68
2022/01/01 04:46:48;;;;;;;26.42;9.95;;;;;;;-2.25;100.00;98049.84;5014593;28;20060;-67
2022/01/01 04:49:14;;;;;;;32.25;10.35;;;;;;;-2.23;100.00;98047.06;5013759;28;20485;-66
2022/01/01 04:51:40;;;;;;;34.28;10.68;;;;;;;-2.23;100.00;98047.94;5012697;28;20068;-67
2022/01/01 04:54:13;;;;;;;35.10;11.23;;;;;;;-2.20;100.00;98047.69;5013104;28;20080;-67
2022/01/01 04:56:43;;;;;;;29.02;11.02;;;;;;;-2.15;100.00;98054.47;5031301;28;20126;-67
2022/01/01 04:59:10;;;;;;;29.65;11.73;;;;;;;-2.22;100.00;98044.34;4997365;28;20033;-66
2022/01/01 05:01:36;;;;;;;28.98;11.15;;;;;;;-2.17;100.00;98059.03;5031357;28;20041;-67
2022/01/01 05:04:02;;;;;;;32.22;11.13;;;;;;;-2.23;100.00;98047.06;4997290;28;20109;-67
2022/01/01 05:06:28;;;;;;;33.25;12.27;;;;;;;-2.16;100.00;98058.06;5031287;28;20132;-67
2022/01/01 05:08:54;;;;;;;30.92;11.20;;;;;;;-2.13;100.00;98060.50;5031712;28;20107;-68
2022/01/01 05:11:19;;;;;;;36.78;13.05;;;;;;;-2.08;100.00;98066.31;5031287;28;20144;-67
2022/01/01 05:13:45;;;;;;;35.72;12.32;;;;;;;-2.10;100.00;98063.78;5031912;28;20143;-68
2022/01/01 05:16:15;;;;;;;27.30;10.65;;;;;;;-2.16;100.00;98058.91;5013703;28;20127;-67
2022/01/01 05:18:41;;;;;;;30.92;11.43;;;;;;;-2.24;100.00;98035.66;5031163;28;20057;-68
2022/01/01 05:21:07;;;;;;;30.10;11.68;;;;;;;-2.11;100.00;98055.94;5030516;28;20045;-67
2022/01/01 05:23:33;;;;;;;31.15;11.38;;;;;;;-2.09;100.00;98048.72;5013980;28;20394;-69
2022/01/01 05:25:58;;;;;;;27.27;11.55;;;;;;;-2.07;100.00;98049.47;5013578;28;20413;-68
2022/01/01 05:28:24;;;;;;;32.00;9.68;;;;;;;-2.01;100.00;98056.94;5014812;28;20048;-66
2022/01/01 05:30:51;;;;;;;29.80;10.75;;;;;;;-2.05;100.00;98071.38;5031586;28;20081;-67
2022/01/01 05:33:17;;;;;;;25.10;9.85;;;;;;;-2.02;100.00;98072.00;5014310;28;20121;-67
2022/01/01 05:35:43;;;;;;;26.35;9.93;;;;;;;-2.01;100.00;98079.00;5030519;28;20088;-66
2022/01/01 05:38:08;;;;;;;27.17;9.82;;;;;;;-1.99;100.00;98076.22;5030356;28;20080;-67
2022/01/01 05:40:34;;;;;;;30.42;9.90;;;;;;;-1.98;100.00;98072.63;5030648;28;20130;-67
2022/01/01 05:43:00;;;;;;;25.42;9.93;;;;;;;-2.04;100.00;98078.38;5031686;28;20064;-67
2022/01/01 05:45:26;;;;;;;28.30;9.63;;;;;;;-1.98;100.00;98077.91;5030327;28;20458;-67
2022/01/01 05:47:52;;;;;;;28.83;9.93;;;;;;;-1.97;100.00;98080.47;5030369;28;20045;-68
2022/01/01 05:50:19;;;;;;;31.98;10.15;;;;;;;-1.98;100.00;98077.91;4997652;28;20099;-67
2022/01/01 05:52:45;;;;;;;29.10;9.52;;;;;;;-1.88;100.00;98089.53;5030526;28;20041;-66
2022/01/01 05:55:11;;;;;;;40.50;14.32;;;;;;;-2.00;100.00;98064.78;5013927;28;20149;-68
2022/01/01 05:57:37;;;;;;;47.40;15.68;;;;;;;-1.88;100.00;98078.94;5013776;28;20083;-67
2022/01/01 06:00:06;;;;;;;29.42;10.85;;;;;;;-1.96;100.00;98073.38;5029219;28;20345;-67
2022/01/01 06:02:40;;;;;;;27.17;9.77;;;;;;;-2.14;100.00;98045.59;5029686;28;20065;-67
2022/01/01 06:05:06;;;;;;;26.60;9.25;;;;;;;-1.86;100.00;98092.94;5032087;28;20136;-68
2022/01/01 06:07:32;;;;;;;24.40;9.32;;;;;;;-1.94;100.00;98084.66;5033764;28;20037;-67
2022/01/01 06:09:59;;;;;;;30.02;10.88;;;;;;;-1.88;100.00;98089.53;5036012;28;20045;-67
2022/01/01 06:12:25;;;;;;;30.60;10.27;;;;;;;-1.91;100.00;98088.91;5017425;28;20042;-67
2022/01/01 06:14:51;;;;;;;29.00;11.15;;;;;;;-2.15;100.00;98043.91;5016852;28;20045;-68
2022/01/01 06:17:17;;;;;;;25.73;9.68;;;;;;;-1.90;100.00;98087.94;5033380;28;20111;-67
2022/01/01 06:19:43;;;;;;;25.63;10.30;;;;;;;-1.94;100.00;98079.38;5017201;28;20119;-67
2022/01/01 06:22:08;;;;;;;33.05;11.30;;;;;;;-2.02;100.00;98064.06;5016944;28;20109;-68
2022/01/01 06:24:34;;;;;;;30.65;11.00;;;;;;;-1.92;100.00;98080.13;5035438;28;20405;-68
2022/01/01 06:27:00;;;;;;;25.40;10.85;;;;;;;-1.86;100.00;98087.63;5017161;28;20461;-66
2022/01/01 06:29:26;;;;;;;30.67;9.73;;;;;;;-1.82;100.00;98094.38;5035401;28;20120;-69
2022/01/01 06:31:51;;;;;;;26.42;9.38;;;;;;;-1.83;100.00;98087.41;5017192;28;20552;-68
2022/01/01 06:34:17;;;;;;;22.40;8.25;;;;;;;-2.07;100.00;98060.91;5034637;28;20461;-68
2022/01/01 06:36:43;;;;;;;21.75;9.38;;;;;;;-1.98;100.00;98067.31;5017617;28;20393;-68
2022/01/01 06:39:09;;;;;;;27.98;9.50;;;;;;;-1.83;100.00;98090.06;5036968;28;20485;-69
2022/01/01 06:41:35;;;;;;;24.65;9.05;;;;;;;-1.75;100.00;98092.97;5018713;28;20053;-68
2022/01/01 06:44:00;;;;;;;28.38;9.50;;;;;;;-1.79;100.00;98088.00;5002200;28;20042;-68
2022/01/01 06:46:26;;;;;;;28.08;8.88;;;;;;;-1.70;100.00;98093.47;5036684;28;20049;-69
2022/01/01 06:48:52;;;;;;;26.42;10.55;;;;;;;-1.71;100.00;98094.44;4987637;28;20049;-68
2022/01/01 06:51:18;;;;;;;24.70;10.48;;;;;;;-1.77;100.00;98086.94;5036679;28;20044;-68
2022/01/01 06:53:44;;;;;;;25.95;11.52;;;;;;;-1.79;100.00;98088.88;5002751;28;20049;-69
2022/01/01 06:56:09;;;;;;;22.70;9.68;;;;;;;-1.90;100.00;98066.75;5036243;28;20041;-70
2022/01/01 06:58:36;;;;;;;26.55;9.50;;;;;;;-1.76;100.00;98088.63;5037998;28;20038;-68
2022/01/01 07:01:03;;;;;;;29.05;10.68;;;;;;;-1.89;100.00;98071.97;5037134;28;20047;-68
2022/01/01 07:03:29;;;;;;;29.95;10.65;;;;;;;-1.80;100.00;98089.81;5041190;28;20049;-69
2022/01/01 07:05:55;;;;;;;24.45;10.45;;;;;;;-1.83;100.00;98087.41;5019820;28;20136;-69
2022/01/01 07:08:20;;;;;;;26.42;10.10;;;;;;;-1.65;100.00;98097.59;5024609;28;20079;-67
2022/01/01 07:10:46;;;;;;;27.60;9.30;;;;;;;-1.70;100.00;98093.47;5042325;28;20064;-69
2022/01/01 07:13:13;;;;;;;24.52;8.75;;;;;;;-1.68;100.00;98079.25;5034492;28;20052;-67
2022/01/01 07:15:39;;;;;;;20.30;6.95;;;;;;;-1.66;100.00;98094.09;5033617;28;20478;-68
2022/01/01 07:18:05;;;;;;;23.33;7.60;;;;;;;-1.70;100.00;98072.28;5034300;28;20127;-69
2022/01/01 07:20:31;;;;;;;24.73;8.27;;;;;;;-1.55;100.00;98095.97;5019831;28;20060;-69
2022/01/01 07:22:56;;;;;;;17.63;6.85;;;;;;;-1.57;100.00;98093.44;5000356;28;20057;-69
2022/01/01 07:25:22;;;;;;;19.55;7.20;;;;;;;-1.71;100.00;98067.97;5016179;28;20140;-69
2022/01/01 07:27:48;;;;;;;25.27;8.00;;;;;;;-1.60;100.00;98088.34;5000678;28;20508;-69
2022/01/01 07:30:14;;;;;;;23.00;7.90;;;;;;;-1.59;100.00;98081.25;5034667;28;20077;-68
2022/01/01 07:32:41;;;;;;;20.20;7.68;;;;;;;-1.45;100.00;98096.97;5032386;28;20049;-67
2022/01/01 07:35:08;;;;;;;18.45;7.25;;;;;;;-1.45;100.00;98096.97;5015854;28;20091;-69
2022/01/01 07:37:34;;;;;;;20.10;7.97;;;;;;;-1.42;100.00;98099.41;5033047;28;20045;-69
2022/01/01 07:40:00;;;;;;;23.70;8.30;;;;;;;-1.41;100.00;98103.72;5033811;28;20075;-70
2022/01/01 07:42:25;;;;;;;21.65;8.13;;;;;;;-1.43;100.00;98080.94;5034021;28;20041;-69
2022/01/01 07:44:51;;;;;;;26.23;8.60;;;;;;;-1.34;100.00;98102.31;5032713;28;20053;-70
2022/01/01 07:47:17;;;;;;;23.60;8.65;;;;;;;-1.22;100.00;98103.19;5016958;28;20180;-70
2022/01/01 07:49:43;;;;;;;24.90;8.88;;;;;;;-1.39;100.00;98075.31;5032144;28;20060;-68
2022/01/01 07:52:09;;;;;;;24.15;8.90;;;;;;;-1.30;100.00;98079.91;5032267;28;20073;-68
2022/01/01 07:54:35;;;;;;;24.17;8.43;;;;;;;-1.26;100.00;98083.16;4998609;28;20041;-68
2022/01/01 07:57:01;;;;;;;26.25;8.90;;;;;;;-1.23;100.00;98106.81;5014457;28;20048;-68
2022/01/01 07:59:26;;;;;;;21.63;9.10;;;;;;;-1.20;100.00;98103.09;5036313;28;20049;-69
2022/01/01 08:01:52;;;;;;;22.73;9.63;;;;;;;-1.29;100.00;98075.44;5016517;28;20490;-69
2022/01/01 08:04:18;;;;;;;29.42;9.30;;;;;;;-1.32;100.00;98087.13;5033337;28;20141;-70
2022/01/01 08:06:44;;;;;;;31.35;9.70;;;;;;;-1.24;100.00;98099.81;5031995;28;20057;-70
2022/01/01 08:09:09;;;;;;;24.23;9.30;;;;;;;-1.17;100.00;98116.09;5000142;28;20052;-69
2022/01/01 08:11:35;;;;;;;24.15;8.85;;;;;;;-1.35;100.00;98082.06;5033606;28;20041;-69
2022/01/01 08:14:01;;;;;;;25.25;8.93;;;;;;;-1.16;100.00;98112.50;5000366;28;20041;-69
2022/01/01 08:16:27;;;;;;;24.67;10.45;;;;;;;-1.06;100.00;98119.63;5033822;28;20041;-70
2022/01/01 08:18:52;;;;;;;29.38;9.35;;;;;;;-1.04;100.00;98116.84;5018548;28;20156;-69
2022/01/01 08:21:18;;;;;;;26.52;9.93;;;;;;;-1.03;100.00;98113.25;4998923;28;20114;-70
2022/01/01 08:23:44;;;;;;;21.48;9.55;;;;;;;-0.95;100.00;98099.38;4983093;28;20045;-69
2022/01/01 08:26:10;;;;;;;28.13;10.43;;;;;;;-1.00;100.00;98113.00;5031287;28;20050;-70
2022/01/01 08:28:36;;;;;;;30.40;10.10;;;;;;;-0.99;100.00;98109.38;5031281;28;20063;-69
2022/01/01 08:31:02;;;;;;;26.30;10.00;;;;;;;-1.14;100.00;98097.28;5036014;28;20045;-70
2022/01/01 08:33:27;;;;;;;27.40;9.95;;;;;;;-0.96;100.00;98125.06;5018428;28;20489;-70
2022/01/01 08:35:53;;;;;;;27.58;9.43;;;;;;;-0.93;100.00;98129.31;5032350;28;20077;-71
2022/01/01 08:38:19;;;;;;;28.80;9.38;;;;;;;-0.86;100.00;98127.88;5016944;28;20049;-70
2022/01/01 08:40:45;;;;;;;24.85;9.23;;;;;;;-0.85;100.00;98122.44;5033851;28;20096;-70
2022/01/01 08:43:11;;;;;;;24.88;8.30;;;;;;;-0.85;100.00;98125.09;5016667;28;20084;-69
2022/01/01 08:45:37;;;;;;;24.15;8.82;;;;;;;-0.84;100.00;98118.84;5016400;28;20076;-69
2022/01/01 08:48:07;;;;;;;19.25;7.80;;;;;;;-0.98;100.00;98108.44;5032473;28;20103;-69
2022/01/01 08:50:33;;;;;;;20.50;7.47;;;;;;;-0.88;100.00;98122.66;4982534;28;20053;-69
2022/01/01 08:52:59;;;;;;;18.10;7.38;;;;;;;-0.92;100.00;98123.88;5015150;28;20596;-69
2022/01/01 08:55:27;;;;;;;17.60;6.80;;;;;;;-0.90;100.00;98114.00;5014952;28;20037;-70
2022/01/01 08:57:53;;;;;;;18.60;6.78;;;;;;;-0.92;100.00;98110.59;5031211;28;20053;-69
2022/01/01 09:00:21;;;;;;;25.15;7.93;;;;;;;-0.87;100.00;98119.09;5006523;28;20042;-74
2022/01/01 09:02:47;;;;;;;24.50;7.32;;;;;;;-0.83;100.00;98099.31;5031148;28;20033;-70
2022/01/01 09:05:13;;;;;;;18.55;7.43;;;;;;;-0.81;100.00;98102.66;5013307;28;20049;-72
2022/01/01 09:07:39;;;;;;;20.73;7.43;;;;;;;-0.62;100.00;98117.16;5008325;28;20505;-71
2022/01/01 09:10:08;;;;;;;17.33;7.65;;;;;;;-1.14;100.00;98025.72;5012146;28;20414;-72
2022/01/01 09:12:34;;;;;;;20.35;6.22;;;;;;;-0.95;100.00;98094.97;5029569;28;20100;-69
2022/01/01 09:15:00;;;;;;;16.65;6.22;;;;;;;-0.79;100.00;98099.91;4991418;28;20508;-70
2022/01/01 09:17:26;;;;;;;17.83;6.00;;;;;;;-0.74;100.00;98092.44;5015322;28;20042;-69
2022/01/01 09:19:51;;;;;;;14.73;6.03;;;;;;;-0.70;98.80;98101.00;5054212;28;20118;-69
2022/01/01 09:22:17;;;;;;;15.88;5.65;;;;;;;-0.74;99.73;98103.88;5010973;28;20510;-70
2022/01/01 09:24:43;;;;;;;16.63;5.65;;;;;;;-0.65;100.00;98109.47;5026018;28;20033;-75
2022/01/01 09:27:09;;;;;;;17.25;5.75;;;;;;;-0.84;97.52;98083.50;5025696;28;20087;-74
2022/01/01 09:29:35;;;;;;;15.90;5.88;;;;;;;-0.85;97.16;98079.16;5004541;28;20053;-70
2022/01/01 09:32:00;;;;;;;14.63;5.82;;;;;;;-0.81;97.84;98097.38;5033720;28;20072;-75
2022/01/01 09:34:27;;;;;;;16.65;6.07;;;;;;;-0.85;98.65;98089.78;5020271;28;20129;-68
2022/01/01 09:36:54;;;;;;;17.67;5.43;;;;;;;-0.82;98.08;98106.28;5009176;28;20061;-69
2022/01/01 09:39:20;;;;;;;15.23;5.70;;;;;;;-0.85;97.41;98080.00;5024326;28;20073;-70
2022/01/01 09:41:47;;;;;;;19.45;5.97;;;;;;;-0.77;97.79;98096.19;5027554;28;20109;-71
2022/01/01 09:44:15;;;;;;;15.48;5.57;;;;;;;-0.79;97.91;98095.44;5060996;28;20042;-73
2022/01/01 09:46:44;;;;;;;14.50;5.68;;;;;;;-0.79;99.17;98092.78;5015846;28;20642;-74
2022/01/01 09:49:12;;;;;;;14.35;5.75;;;;;;;-0.77;97.63;98098.84;5004986;28;20076;-69
2022/01/01 09:51:40;;;;;;;13.32;5.20;;;;;;;-0.95;100.00;98065.78;4973052;28;20033;-71
2022/01/01 09:54:07;;;;;;;19.88;6.72;;;;;;;-0.80;99.85;98088.47;4982289;28;20189;-74
2022/01/01 09:56:33;;;;;;;15.50;6.47;;;;;;;-0.99;100.00;98070.47;5016852;28;20449;-70
2022/01/01 09:58:59;;;;;;;13.23;5.00;;;;;;;-0.79;97.99;98090.16;4995226;28;20056;-69
2022/01/01 10:01:25;;;;;;;18.77;6.13;;;;;;;-0.97;97.89;98065.88;4987383;28;20038;-69
2022/01/01 10:03:52;;;;;;;18.20;5.28;;;;;;;-0.99;99.02;98062.53;5005784;28;20037;-70
2022/01/01 10:06:22;;;;;;;14.10;5.82;;;;;;;-0.85;99.39;98090.59;5056231;28;20038;-73
2022/01/01 10:08:54;;;;;;;19.52;6.07;;;;;;;-0.77;99.88;98087.34;5024385;28;20459;-72
2022/01/01 10:11:21;;;;;;;16.98;5.55;;;;;;;-0.85;99.30;98085.31;5027472;28;20609;-73
2022/01/01 10:13:47;;;;;;;14.48;5.28;;;;;;;-0.92;99.30;98073.47;4995663;28;20067;-72
2022/01/01 10:16:14;;;;;;;14.13;6.28;;;;;;;-0.82;99.54;98090.38;5027366;28;20092;-71
2022/01/01 10:18:43;;;;;;;13.25;5.45;;;;;;;-0.86;100.00;98094.22;5030804;28;20508;-73
2022/01/01 10:21:12;;;;;;;19.33;7.35;;;;;;;-0.83;99.35;98091.34;5030530;28;20046;-71
2022/01/01 10:23:41;;;;;;;14.07;5.57;;;;;;;-0.92;98.09;98084.09;5010566;28;20052;-71
2022/01/01 10:29:04;;;;;;;14.40;4.43;;;;;;;-0.88;95.83;98077.56;5028547;28;20046;-73
2022/01/01 10:31:33;;;;;;;12.15;4.78;;;;;;;-0.85;95.71;98080.00;5038192;28;20045;-71
2022/01/01 10:33:59;;;;;;;13.52;5.00;;;;;;;-0.93;95.31;98078.91;5014092;28;20507;-69
2022/01/01 10:36:25;;;;;;;14.48;4.93;;;;;;;-1.03;96.29;98070.81;5012077;28;20053;-69
2022/01/01 10:38:51;;;;;;;15.35;5.20;;;;;;;-1.08;94.27;98068.50;4993550;28;20382;-73
2022/01/01 10:41:18;;;;;;;14.38;4.00;;;;;;;-1.17;94.90;98053.31;5025326;28;20073;-70
2022/01/01 10:43:45;;;;;;;12.15;3.90;;;;;;;-0.89;94.50;98088.31;5019481;28;20033;-69
2022/01/01 10:46:13;;;;;;;14.48;4.80;;;;;;;-0.82;94.86;98090.38;5025950;28;20051;-73
2022/01/01 10:48:57;;;;;;;23.40;6.78;;;;;;;-0.86;95.33;98088.09;5025425;28;20636;-71
2022/01/01 10:51:24;;;;;;;15.70;5.32;;;;;;;-0.91;96.88;98084.97;5036560;28;20284;-76
2022/01/01 10:54:02;;;;;;;10.15;3.58;;;;;;;-1.01;94.67;98090.94;5021134;28;20046;-72
2022/01/01 10:56:36;;;;;;;13.82;4.18;;;;;;;-0.92;94.76;98092.03;5021528;28;20041;-73
2022/01/01 10:59:03;;;;;;;11.57;4.43;;;;;;;-0.94;95.30;98086.03;5042018;23;20058;-73
2022/01/01 11:01:33;;;;;;;14.52;4.65;;;;;;;-1.01;94.78;98076.84;5017991;28;20042;-73
2022/01/01 11:04:00;;;;;;;13.63;5.10;;;;;;;-0.98;93.84;98079.28;4980347;28;20435;-74
2022/01/01 11:06:32;;;;;;;12.70;4.03;;;;;;;-1.00;94.39;98075.88;5018740;28;20042;-73
2022/01/01 11:08:58;;;;;;;11.85;3.75;;;;;;;-1.06;92.91;98071.03;5032361;28;20050;-74
2022/01/01 11:11:25;;;;;;;10.98;3.67;;;;;;;-1.08;92.09;98080.94;4989922;28;20077;-74
2022/01/01 11:13:51;;;;;;;13.32;4.75;;;;;;;-1.13;91.62;98080.41;5008071;28;20037;-74
2022/01/01 11:16:19;;;;;;;15.10;4.35;;;;;;;-1.20;94.06;98069.47;5024618;28;20109;-74
2022/01/01 11:18:45;;;;;;;9.45;3.28;;;;;;;-1.10;93.39;98078.38;5029320;28;20073;-74